Terminal Aerodrome Forecast
Issued by NWS Charleston, WV

Current Version | Previous Version | Graphics & Text | Print | Product List | Glossary On
Versions: 1 2 3 4 5 6 7 8 9 10 11 12 13 14 15 16 17 18 19 20 21 22 23 24
568
FTUS41 KRLX 210258 AAA
TAFCRW
TAF AMD
KCRW 210258Z 2103/2124 VRB02KT P6SM VCSH OVC080
     FM210700 VRB02KT P6SM VCSH OVC030
     FM211000 VRB02KT 5SM BR OVC010
     FM211600 34004KT P6SM OVC014
     FM212200 33005KT P6SM BKN040=

USA.gov is the U.S. government's official web portal to all federal, state and local government web resources and services.